createdAt,value
2023-03-04T00:00:50.816Z,84.68
2023-03-04T00:03:19.765Z,84.63
2023-03-04T00:05:47.823Z,84.69
2023-03-04T00:08:16.317Z,84.64
2023-03-04T00:10:45.798Z,84.24
2023-03-04T00:13:13.488Z,84.20
2023-03-04T00:15:41.012Z,84.52
2023-03-04T00:18:09.365Z,84.34
2023-03-04T00:20:42.319Z,84.09
2023-03-04T00:23:09.913Z,83.72
2023-03-04T00:25:38.292Z,83.96
2023-03-04T00:28:09.371Z,84.21
2023-03-04T00:30:37.821Z,83.68
2023-03-04T00:33:05.447Z,83.78
2023-03-04T00:35:33.039Z,83.96
2023-03-04T00:38:01.897Z,83.79
2023-03-04T00:40:29.480Z,83.99
2023-03-04T00:42:58.301Z,84.11
2023-03-04T00:45:25.782Z,83.96
2023-03-04T00:47:53.333Z,83.73
2023-03-04T00:50:21.134Z,84.35
2023-03-04T00:52:48.679Z,84.10
2023-03-04T00:55:18.370Z,83.84
2023-03-04T00:57:46.297Z,84.10
2023-03-04T01:00:15.137Z,84.11
2023-03-04T01:02:43.142Z,84.42
2023-03-04T01:05:11.039Z,84.50
2023-03-04T01:07:39.154Z,85.10
2023-03-04T01:10:09.147Z,85.17
2023-03-04T01:12:37.997Z,85.23
2023-03-04T01:15:06.347Z,85.17
2023-03-04T01:17:33.900Z,85.20
2023-03-04T01:20:02.307Z,85.17
2023-03-04T01:22:29.830Z,85.40
2023-03-04T01:24:57.670Z,85.65
2023-03-04T01:27:28.302Z,85.69
2023-03-04T01:29:58.112Z,85.52
2023-03-04T01:32:25.735Z,85.59
2023-03-04T01:34:54.368Z,85.62
2023-03-04T01:37:21.980Z,85.46
2023-03-04T01:39:49.597Z,85.58
2023-03-04T01:42:21.420Z,85.64
2023-03-04T01:44:49.885Z,85.36
2023-03-04T01:47:19.781Z,85.31
2023-03-04T01:49:51.800Z,85.12
2023-03-04T01:52:23.304Z,84.52
2023-03-04T01:54:51.429Z,84.55
2023-03-04T01:57:21.131Z,84.64
2023-03-04T02:00:09.369Z,84.79
2023-03-04T02:02:43.138Z,84.93
2023-03-04T02:05:11.196Z,85.34
2023-03-04T02:07:39.017Z,84.78
2023-03-04T02:10:07.543Z,84.83
2023-03-04T02:12:35.362Z,84.86
2023-03-04T02:15:04.257Z,84.81
2023-03-04T02:17:34.391Z,85.24
2023-03-04T02:20:15.309Z,85.21
2023-03-04T02:22:51.348Z,85.07
2023-03-04T02:25:48.579Z,85.39
2023-03-04T02:28:18.310Z,85.34
2023-03-04T02:30:47.376Z,85.54
2023-03-04T02:33:18.531Z,85.63
2023-03-04T02:35:47.037Z,85.92
2023-03-04T02:38:15.033Z,85.77
2023-03-04T02:40:44.829Z,85.83
2023-03-04T02:46:17.375Z,86.10
2023-03-04T02:49:11.305Z,86.40
2023-03-04T02:51:40.920Z,86.76
2023-03-04T02:54:16.307Z,86.67
2023-03-04T02:56:46.973Z,87.30
2023-03-04T02:59:17.105Z,87.38
2023-03-04T03:01:46.413Z,87.07
2023-03-04T03:04:15.420Z,86.94
2023-03-04T03:06:45.757Z,87.06
2023-03-04T03:09:13.880Z,87.05
2023-03-04T03:11:41.394Z,87.15
2023-03-04T03:14:09.638Z,86.90
2023-03-04T03:16:39.766Z,86.87
2023-03-04T03:19:08.641Z,86.40
2023-03-04T03:21:41.300Z,86.57
2023-03-04T03:24:12.750Z,86.26
2023-03-04T03:26:40.885Z,86.16
2023-03-04T03:29:08.989Z,85.57
2023-03-04T03:31:36.714Z,85.84
2023-03-04T03:34:04.335Z,85.86
2023-03-04T03:36:33.247Z,85.79
2023-03-04T03:39:00.988Z,85.56
2023-03-04T03:41:28.750Z,85.79
2023-03-04T03:43:56.900Z,85.49
2023-03-04T03:46:26.298Z,85.82
2023-03-04T03:48:56.663Z,85.64
2023-03-04T03:51:24.307Z,86.03
2023-03-04T03:53:53.219Z,86.03
2023-03-04T03:56:22.317Z,86.32
2023-03-04T03:58:49.884Z,86.03
2023-03-04T04:01:18.335Z,86.53
2023-03-04T04:03:45.815Z,86.60
2023-03-04T04:06:13.401Z,86.79
2023-03-04T04:08:41.109Z,86.66
2023-03-04T04:11:11.368Z,86.73
2023-03-04T04:13:39.452Z,87.13
2023-03-04T04:16:10.415Z,86.37
2023-03-04T04:18:38.306Z,86.42
2023-03-04T04:21:07.392Z,86.59
2023-03-04T04:23:36.331Z,86.25
2023-03-04T04:26:03.870Z,86.23
2023-03-04T04:28:34.510Z,86.63
2023-03-04T04:31:02.380Z,86.20
2023-03-04T04:33:29.976Z,85.96
2023-03-04T04:35:59.358Z,85.97
2023-03-04T04:38:27.079Z,86.19
2023-03-04T04:40:54.712Z,86.15
2023-03-04T04:43:22.230Z,85.77
2023-03-04T04:45:51.143Z,86.34
2023-03-04T04:48:20.316Z,86.02
2023-03-04T04:50:47.815Z,86.43
2023-03-04T04:53:16.739Z,86.16
2023-03-04T04:55:45.443Z,85.90
2023-03-04T04:58:12.949Z,85.97
2023-03-04T05:00:40.603Z,85.93
2023-03-04T05:03:09.663Z,85.87
2023-03-04T05:05:37.653Z,86.01
2023-03-04T05:08:05.609Z,85.94
2023-03-04T05:10:33.823Z,85.98
2023-03-04T05:13:01.774Z,86.22
2023-03-04T05:15:29.353Z,86.37
2023-03-04T05:17:57.357Z,86.73
2023-03-04T05:20:27.066Z,86.55
2023-03-04T05:22:54.671Z,86.75
2023-03-04T05:25:23.300Z,87.02
2023-03-04T05:27:50.790Z,86.53
2023-03-04T05:30:19.472Z,86.73
2023-03-04T05:32:47.363Z,87.04
2023-03-04T05:35:15.736Z,87.40
2023-03-04T05:38:10.972Z,87.07
2023-03-04T05:40:38.875Z,87.04
2023-03-04T05:43:06.849Z,87.07
2023-03-04T05:45:36.333Z,87.27
2023-03-04T05:48:04.443Z,87.51
2023-03-04T05:50:33.305Z,87.48
2023-03-04T05:53:01.124Z,87.57
2023-03-04T05:55:30.173Z,87.96
2023-03-04T06:00:52.875Z,87.97
2023-03-04T06:03:22.438Z,88.31
2023-03-04T06:05:52.390Z,88.20
2023-03-04T06:08:19.896Z,88.81
2023-03-04T06:10:49.100Z,88.81
2023-03-04T06:13:16.637Z,89.36
2023-03-04T06:15:44.448Z,89.55
2023-03-04T06:18:13.325Z,89.74
2023-03-04T06:20:41.095Z,90.32
2023-03-04T06:23:08.812Z,91.02
2023-03-04T06:25:36.443Z,91.73
2023-03-04T06:28:05.474Z,91.81
2023-03-04T06:30:33.103Z,91.97
2023-03-04T06:33:00.771Z,92.79
2023-03-04T06:35:29.338Z,92.99
2023-03-04T06:37:58.312Z,93.17
2023-03-04T06:40:25.848Z,93.75
2023-03-04T06:42:54.758Z,94.04
2023-03-04T06:45:23.656Z,94.35
2023-03-04T06:47:53.314Z,94.97
2023-03-04T06:50:21.049Z,95.07
2023-03-04T06:52:49.329Z,95.73
2023-03-04T06:55:17.012Z,95.89
2023-03-04T06:57:45.526Z,96.30
2023-03-04T07:00:16.100Z,96.51
2023-03-04T07:02:44.923Z,96.85
2023-03-04T07:05:12.748Z,97.67
2023-03-04T07:07:40.253Z,98.04
2023-03-04T07:10:10.009Z,98.17
2023-03-04T07:12:37.588Z,98.54
2023-03-04T07:15:06.817Z,98.85
2023-03-04T07:17:36.322Z,98.88
2023-03-04T07:20:06.380Z,98.92
2023-03-04T07:22:34.310Z,99.09
2023-03-04T07:25:01.817Z,99.31
2023-03-04T07:27:29.339Z,99.51
2023-03-04T07:29:57.384Z,99.55
2023-03-04T07:32:26.902Z,99.88
2023-03-04T07:34:54.481Z,99.80
2023-03-04T07:37:23.532Z,99.44
2023-03-04T07:39:51.040Z,99.64
2023-03-04T07:42:19.755Z,99.58
2023-03-04T07:44:55.135Z,99.75
2023-03-04T07:47:23.350Z,99.52
2023-03-04T07:49:53.209Z,99.88
2023-03-04T07:52:23.112Z,99.30
2023-03-04T07:54:51.282Z,99.50
2023-03-04T07:57:23.315Z,99.47
2023-03-04T07:59:50.794Z,99.42
2023-03-04T08:02:20.935Z,99.26
2023-03-04T08:04:49.319Z,99.21
2023-03-04T08:07:16.967Z,98.97
2023-03-04T08:09:45.791Z,99.42
2023-03-04T08:12:13.302Z,99.31
2023-03-04T08:14:41.812Z,99.31
2023-03-04T08:17:09.770Z,99.72
2023-03-04T08:19:37.409Z,99.71
2023-03-04T08:22:05.788Z,99.67
2023-03-04T08:24:33.638Z,100.00
2023-03-04T08:27:02.541Z,100.00
2023-03-04T08:29:32.319Z,100.00
2023-03-04T08:32:00.880Z,100.00
2023-03-04T08:34:29.903Z,100.00
2023-03-04T08:36:57.654Z,100.00
2023-03-04T08:39:25.887Z,100.00
2023-03-04T08:41:53.430Z,100.00
2023-03-04T08:44:25.100Z,100.00
2023-03-04T08:46:54.381Z,100.00
2023-03-04T08:49:21.955Z,100.00
2023-03-04T08:51:49.802Z,100.00
2023-03-04T08:54:18.836Z,100.00
2023-03-04T08:56:47.314Z,100.00
2023-03-04T08:59:14.814Z,100.00
2023-03-04T09:01:43.930Z,100.00
2023-03-04T09:04:13.330Z,100.00
2023-03-04T09:06:41.367Z,100.00
2023-03-04T09:09:09.191Z,100.00
2023-03-04T09:11:36.970Z,100.00
2023-03-04T09:14:04.737Z,100.00
2023-03-04T09:16:32.220Z,100.00
2023-03-04T09:19:01.183Z,100.00
2023-03-04T09:21:29.332Z,100.00
2023-03-04T09:23:56.857Z,100.00
2023-03-04T09:26:28.090Z,100.00
2023-03-04T09:28:58.463Z,100.00
2023-03-04T09:31:27.584Z,100.00
2023-03-04T09:33:57.306Z,100.00
2023-03-04T09:36:26.315Z,100.00
2023-03-04T09:38:55.802Z,100.00
2023-03-04T09:41:26.922Z,100.00
2023-03-04T09:43:55.487Z,100.00
2023-03-04T09:46:31.743Z,100.00
2023-03-04T09:48:59.527Z,100.00
2023-03-04T09:51:42.902Z,100.00
2023-03-04T09:54:15.386Z,100.00
2023-03-04T09:56:44.462Z,100.00
2023-03-04T09:59:19.294Z,100.00
2023-03-04T10:01:50.804Z,100.00
2023-03-04T10:04:23.510Z,100.00
2023-03-04T10:06:55.104Z,100.00
2023-03-04T10:09:26.924Z,100.00
2023-03-04T10:12:03.932Z,100.00
2023-03-04T10:14:36.074Z,100.00
2023-03-04T10:17:09.749Z,100.00
2023-03-04T10:19:55.177Z,100.00
2023-03-04T10:22:30.841Z,100.00
2023-03-04T10:25:02.345Z,100.00
2023-03-04T10:27:31.335Z,100.00
2023-03-04T10:30:01.586Z,100.00
2023-03-04T10:32:29.943Z,100.00
2023-03-04T10:34:57.665Z,100.00
2023-03-04T10:37:44.896Z,100.00
2023-03-04T10:40:21.670Z,100.00
2023-03-04T10:42:50.950Z,100.00
2023-03-04T10:45:24.076Z,100.00
2023-03-04T10:47:58.301Z,100.00
2023-03-04T10:50:28.376Z,100.00
2023-03-04T10:52:57.769Z,100.00
2023-03-04T10:55:28.482Z,100.00
2023-03-04T10:58:03.186Z,100.00
2023-03-04T11:00:33.240Z,100.00
2023-03-04T11:03:25.961Z,100.00
2023-03-04T11:06:11.377Z,100.00
2023-03-04T11:08:43.921Z,100.00
2023-03-04T11:11:27.378Z,100.00
2023-03-04T11:14:01.204Z,100.00
2023-03-04T11:16:30.938Z,100.00
2023-03-04T11:19:01.449Z,100.00
2023-03-04T11:21:32.838Z,100.00
2023-03-04T11:24:04.494Z,100.00
2023-03-04T11:26:37.347Z,100.00
2023-03-04T11:29:15.278Z,100.00
2023-03-04T11:31:50.120Z,100.00
2023-03-04T11:34:30.875Z,100.00
2023-03-04T11:37:03.465Z,100.00
2023-03-04T11:39:38.321Z,100.00
2023-03-04T11:42:17.371Z,100.00
2023-03-04T11:44:45.177Z,100.00
2023-03-04T11:47:35.901Z,100.00
2023-03-04T11:50:16.386Z,100.00
2023-03-04T11:53:05.440Z,100.00
2023-03-04T11:55:41.901Z,100.00
2023-03-04T11:58:26.483Z,100.00
2023-03-04T12:01:02.179Z,100.00
2023-03-04T12:03:53.441Z,100.00
2023-03-04T12:06:34.450Z,100.00
2023-03-04T12:09:16.166Z,100.00
2023-03-04T12:11:56.785Z,100.00
2023-03-04T12:14:29.341Z,100.00
2023-03-04T12:17:32.330Z,100.00
2023-03-04T12:20:31.117Z,100.00
2023-03-04T12:23:11.793Z,100.00
2023-03-04T12:25:43.297Z,100.00
2023-03-04T12:28:52.468Z,100.00
2023-03-04T12:31:34.694Z,100.00
2023-03-04T12:34:44.307Z,100.00
2023-03-04T12:37:23.310Z,100.00
2023-03-04T12:40:07.065Z,100.00
2023-03-04T12:42:43.397Z,100.00
2023-03-04T12:45:22.150Z,100.00
2023-03-04T12:48:03.427Z,100.00
2023-03-04T12:51:02.053Z,100.00
2023-03-04T12:53:40.323Z,100.00
2023-03-04T12:56:22.937Z,100.00
2023-03-04T12:58:50.942Z,100.00
2023-03-04T13:01:27.346Z,100.00
2023-03-04T13:04:05.391Z,100.00
2023-03-04T13:06:43.533Z,100.00
2023-03-04T13:09:20.784Z,100.00
2023-03-04T13:12:03.324Z,100.00
2023-03-04T13:14:33.142Z,100.00
2023-03-04T13:17:02.333Z,100.00
2023-03-04T13:19:50.788Z,100.00
2023-03-04T13:22:35.352Z,100.00
2023-03-04T13:25:34.220Z,100.00
2023-03-04T13:28:20.775Z,100.00
2023-03-04T13:31:16.486Z,100.00
2023-03-04T13:34:03.330Z,100.00
2023-03-04T13:37:00.662Z,100.00
2023-03-04T13:39:32.007Z,100.00
2023-03-04T13:41:59.997Z,98.75
2023-03-04T13:45:04.477Z,97.41
2023-03-04T13:47:44.392Z,94.50
2023-03-04T13:50:39.378Z,94.21
2023-03-04T13:53:44.403Z,94.24
2023-03-04T13:56:43.328Z,93.59
2023-03-04T13:59:29.506Z,91.85
2023-03-04T14:02:04.328Z,91.59
2023-03-04T14:04:36.347Z,90.28
2023-03-04T14:07:21.355Z,90.13
2023-03-04T14:09:57.608Z,91.08
2023-03-04T14:12:29.324Z,90.41
2023-03-04T14:15:00.027Z,89.78
2023-03-04T14:17:31.147Z,89.76
2023-03-04T14:20:00.795Z,87.31
2023-03-04T14:22:31.155Z,86.36
2023-03-04T14:25:04.332Z,87.51
2023-03-04T14:27:36.976Z,85.27
2023-03-04T14:30:07.292Z,85.20
2023-03-04T14:32:36.443Z,85.06
2023-03-04T14:35:07.325Z,84.57
2023-03-04T14:37:43.413Z,83.01
2023-03-04T14:40:21.658Z,83.26
2023-03-04T14:43:01.369Z,82.94
2023-03-04T14:45:31.030Z,82.36
2023-03-04T14:48:05.789Z,83.49
2023-03-04T14:50:37.673Z,83.70
2023-03-04T14:53:15.487Z,81.46
2023-03-04T14:55:58.340Z,80.71
2023-03-04T14:58:30.511Z,80.65
2023-03-04T15:01:06.489Z,79.48
2023-03-04T15:03:35.200Z,79.22
2023-03-04T15:06:19.279Z,79.20
2023-03-04T15:08:48.314Z,79.56
2023-03-04T15:11:24.498Z,78.21
2023-03-04T15:13:56.460Z,78.81
2023-03-04T15:16:26.836Z,78.65
2023-03-04T15:18:56.407Z,77.25
2023-03-04T15:21:34.905Z,76.10
2023-03-04T15:24:03.653Z,74.88
2023-03-04T15:26:32.584Z,76.38
2023-03-04T15:29:05.024Z,76.09
2023-03-04T15:31:32.573Z,75.65
2023-03-04T15:34:00.818Z,76.51
2023-03-04T15:36:28.340Z,76.42
2023-03-04T15:39:01.324Z,77.10
2023-03-04T15:41:29.635Z,76.42
2023-03-04T15:43:57.231Z,77.39
2023-03-04T15:46:26.152Z,77.25
2023-03-04T15:48:53.755Z,77.96
2023-03-04T15:51:23.378Z,77.86
2023-03-04T15:53:52.461Z,77.53
2023-03-04T15:56:22.136Z,77.49
2023-03-04T15:58:55.064Z,76.80
2023-03-04T16:01:25.356Z,77.60
2023-03-04T16:03:54.927Z,78.43
2023-03-04T16:06:27.326Z,79.15
2023-03-04T16:08:54.883Z,78.86
2023-03-04T16:11:25.002Z,79.04
2023-03-04T16:13:52.995Z,78.60
2023-03-04T16:19:13.683Z,79.01
2023-03-04T16:21:41.728Z,79.71
2023-03-04T16:24:16.812Z,79.78
2023-03-04T16:26:44.336Z,80.08
2023-03-04T16:29:12.368Z,79.54
2023-03-04T16:31:39.940Z,80.51
2023-03-04T16:34:07.626Z,82.02
2023-03-04T16:36:36.950Z,83.86
2023-03-04T16:39:10.949Z,86.47
2023-03-04T16:41:38.785Z,87.71
2023-03-04T16:44:09.008Z,89.00
2023-03-04T16:46:37.373Z,89.54
2023-03-04T16:49:05.776Z,89.89
2023-03-04T16:51:40.627Z,89.94
2023-03-04T16:54:15.491Z,89.79
2023-03-04T16:56:43.058Z,90.15
2023-03-04T16:59:18.319Z,90.13
2023-03-04T17:01:46.573Z,90.48
2023-03-04T17:04:14.493Z,90.57
2023-03-04T17:06:45.385Z,90.24
2023-03-04T17:09:13.848Z,90.72
2023-03-04T17:11:41.502Z,91.06
2023-03-04T17:14:09.316Z,91.49
2023-03-04T17:16:36.966Z,91.11
2023-03-04T17:19:04.545Z,91.62
2023-03-04T17:21:32.380Z,91.76
2023-03-04T17:24:03.026Z,91.92
2023-03-04T17:26:31.337Z,91.75
2023-03-04T17:28:58.924Z,91.94
2023-03-04T17:31:26.622Z,91.99
2023-03-04T17:33:54.853Z,91.86
2023-03-04T17:36:22.512Z,91.77
2023-03-04T17:38:51.960Z,91.68
2023-03-04T17:41:21.957Z,91.50
2023-03-04T17:43:51.047Z,91.57
2023-03-04T17:46:20.922Z,91.70
2023-03-04T17:48:48.773Z,91.23
2023-03-04T17:51:16.293Z,91.40
2023-03-04T17:53:43.840Z,91.11
2023-03-04T17:56:12.612Z,90.96
2023-03-04T17:58:41.979Z,91.36
2023-03-04T18:01:17.566Z,90.84
2023-03-04T18:03:45.184Z,91.40
2023-03-04T18:06:14.677Z,91.53
2023-03-04T18:08:42.321Z,91.96
2023-03-04T18:11:10.184Z,92.17
2023-03-04T18:13:39.030Z,91.95
2023-03-04T18:16:11.684Z,91.72
2023-03-04T18:18:40.676Z,91.32
2023-03-04T18:21:08.589Z,91.09
2023-03-04T18:23:37.828Z,90.85
2023-03-04T18:26:05.406Z,90.58
2023-03-04T18:28:33.801Z,91.15
2023-03-04T18:31:01.708Z,91.45
2023-03-04T18:33:32.413Z,91.65
2023-03-04T18:36:03.962Z,91.73
2023-03-04T18:38:32.312Z,92.07
2023-03-04T18:41:00.963Z,92.08
2023-03-04T18:43:28.864Z,92.00
2023-03-04T18:46:05.313Z,92.52
2023-03-04T18:49:03.184Z,92.47
2023-03-04T18:51:31.348Z,92.65
2023-03-04T18:53:59.778Z,92.94
2023-03-04T18:56:37.520Z,92.94
2023-03-04T18:59:07.353Z,92.77
2023-03-04T19:01:35.264Z,93.02
2023-03-04T19:04:05.591Z,93.36
2023-03-04T19:06:34.566Z,93.13
2023-03-04T19:09:03.477Z,93.27
2023-03-04T19:11:31.578Z,93.05
2023-03-04T19:13:59.336Z,92.83
2023-03-04T19:16:27.042Z,92.60
2023-03-04T19:18:54.815Z,92.35
2023-03-04T19:21:23.632Z,92.41
2023-03-04T19:23:51.384Z,92.40
2023-03-04T19:26:19.028Z,92.68
2023-03-04T19:28:46.524Z,92.67
2023-03-04T19:31:14.175Z,92.49
2023-03-04T19:33:42.347Z,92.56
2023-03-04T19:36:10.544Z,92.07
2023-03-04T19:38:40.075Z,92.20
2023-03-04T19:41:11.938Z,92.16
2023-03-04T19:43:39.645Z,91.83
2023-03-04T19:46:08.841Z,92.22
2023-03-04T19:48:37.724Z,92.25
2023-03-04T19:51:14.002Z,92.30
2023-03-04T19:53:45.329Z,92.31
2023-03-04T19:56:18.403Z,92.46
2023-03-04T19:58:47.001Z,92.60
2023-03-04T20:01:27.444Z,92.40
2023-03-04T20:03:55.692Z,92.14
2023-03-04T20:06:23.807Z,92.25
2023-03-04T20:08:53.044Z,91.95
2023-03-04T20:11:20.582Z,91.75
2023-03-04T20:13:48.156Z,91.12
2023-03-04T20:16:15.755Z,90.64
2023-03-04T20:18:43.998Z,90.99
2023-03-04T20:21:12.611Z,91.08
2023-03-04T20:23:40.790Z,91.12
2023-03-04T20:26:09.642Z,90.61
2023-03-04T20:28:50.058Z,90.23
2023-03-04T20:31:21.577Z,90.00
2023-03-04T20:33:50.985Z,90.29
2023-03-04T20:36:19.588Z,90.36
2023-03-04T20:38:48.293Z,90.07
2023-03-04T20:41:17.664Z,90.14
2023-03-04T20:43:49.065Z,90.36
2023-03-04T20:46:32.253Z,89.84
2023-03-04T20:49:02.021Z,90.31
2023-03-04T20:51:30.452Z,90.13
2023-03-04T20:53:59.329Z,90.40
2023-03-04T20:56:29.144Z,90.21
2023-03-04T20:58:58.341Z,90.37
2023-03-04T21:01:26.717Z,90.82
2023-03-04T21:03:54.336Z,90.86
2023-03-04T21:06:25.086Z,91.16
2023-03-04T21:08:52.780Z,91.29
2023-03-04T21:11:20.745Z,91.42
2023-03-04T21:13:55.836Z,91.17
2023-03-04T21:16:27.445Z,91.22
2023-03-04T21:18:54.982Z,91.51
2023-03-04T21:21:24.735Z,91.38
2023-03-04T21:23:55.512Z,91.44
2023-03-04T21:26:24.308Z,91.62
2023-03-04T21:28:54.084Z,91.34
2023-03-04T21:31:24.321Z,91.46
2023-03-04T21:33:53.642Z,91.47
2023-03-04T21:36:21.801Z,91.29
2023-03-04T21:38:49.759Z,91.39
2023-03-04T21:41:19.588Z,91.13
2023-03-04T21:43:47.194Z,91.36
2023-03-04T21:46:17.654Z,91.14
2023-03-04T21:48:47.442Z,91.08
2023-03-04T21:51:17.433Z,90.98
2023-03-04T21:53:45.900Z,90.52
2023-03-04T21:56:14.071Z,90.33
2023-03-04T21:58:42.553Z,90.42
2023-03-04T22:01:11.448Z,90.38
2023-03-04T22:03:40.578Z,90.00
2023-03-04T22:06:10.172Z,90.00
2023-03-04T22:08:38.711Z,90.18
2023-03-04T22:11:07.705Z,90.65
2023-03-04T22:13:35.603Z,90.67
2023-03-04T22:16:03.277Z,91.03
2023-03-04T22:18:31.738Z,90.88
2023-03-04T22:21:04.434Z,90.93
2023-03-04T22:23:33.443Z,90.86
2023-03-04T22:26:03.342Z,91.13
2023-03-04T22:28:31.658Z,91.16
2023-03-04T22:30:59.836Z,91.22
2023-03-04T22:33:28.419Z,90.83
2023-03-04T22:35:56.152Z,91.07
2023-03-04T22:38:25.061Z,90.89
2023-03-04T22:40:53.396Z,90.82
2023-03-04T22:43:21.152Z,91.34
2023-03-04T22:45:49.409Z,91.11
2023-03-04T22:48:16.956Z,91.44
2023-03-04T22:50:44.447Z,91.66
2023-03-04T22:53:11.952Z,91.61
2023-03-04T22:55:40.800Z,91.49
2023-03-04T22:58:08.439Z,91.55
2023-03-04T23:00:38.033Z,91.65
2023-03-04T23:03:06.318Z,91.77
2023-03-04T23:05:34.387Z,91.98
2023-03-04T23:08:01.897Z,92.14
2023-03-04T23:10:29.717Z,92.21
2023-03-04T23:15:51.364Z,92.18
2023-03-04T23:18:19.054Z,92.60
2023-03-04T23:20:47.445Z,92.36
2023-03-04T23:23:15.800Z,92.74
2023-03-04T23:25:43.408Z,92.82
2023-03-04T23:28:13.555Z,92.98
2023-03-04T23:30:41.179Z,92.82
2023-03-04T23:33:08.647Z,93.05
2023-03-04T23:35:36.333Z,93.37
2023-03-04T23:38:03.839Z,93.48
2023-03-04T23:40:33.377Z,93.34
2023-03-04T23:43:03.782Z,93.75
2023-03-04T23:45:33.244Z,93.86
2023-03-04T23:48:01.437Z,93.72
2023-03-04T23:50:29.046Z,94.02
2023-03-04T23:52:57.436Z,93.78
2023-03-04T23:55:24.926Z,94.26
2023-03-04T23:57:52.440Z,94.11
